sensor_id;sensor_type;location;lat;lon;timestamp;temperature;humidity
5061;DHT22;2549;52.128;21.068;2022-08-14T00:01:44;24.20;99.90
5061;DHT22;2549;52.128;21.068;2022-08-14T00:04:24;24.20;99.90
5061;DHT22;2549;52.128;21.068;2022-08-14T00:07:03;24.20;99.90
5061;DHT22;2549;52.128;21.068;2022-08-14T00:09:32;24.10;99.90
5061;DHT22;2549;52.128;21.068;2022-08-14T00:12:05;24.20;99.90
5061;DHT22;2549;52.128;21.068;2022-08-14T00:14:51;24.10;99.90
5061;DHT22;2549;52.128;21.068;2022-08-14T00:17:21;24.20;99.90
5061;DHT22;2549;52.128;21.068;2022-08-14T00:19:48;24.20;99.90
5061;DHT22;2549;52.128;21.068;2022-08-14T00:22:18;24.20;99.90
5061;DHT22;2549;52.128;21.068;2022-08-14T00:25:06;24.30;99.90
5061;DHT22;2549;52.128;21.068;2022-08-14T00:27:35;24.20;99.90
5061;DHT22;2549;52.128;21.068;2022-08-14T00:30:09;24.20;99.90
5061;DHT22;2549;52.128;21.068;2022-08-14T00:32:41;24.20;99.90
5061;DHT22;2549;52.128;21.068;2022-08-14T00:35:22;24.20;99.90
5061;DHT22;2549;52.128;21.068;2022-08-14T00:38:09;24.20;99.90
5061;DHT22;2549;52.128;21.068;2022-08-14T00:40:36;24.20;99.90
5061;DHT22;2549;52.128;21.068;2022-08-14T00:43:03;24.20;99.90
5061;DHT22;2549;52.128;21.068;2022-08-14T00:45:30;24.20;99.90
5061;DHT22;2549;52.128;21.068;2022-08-14T00:47:57;24.20;99.90
5061;DHT22;2549;52.128;21.068;2022-08-14T00:50:26;24.20;99.90
5061;DHT22;2549;52.128;21.068;2022-08-14T00:52:57;24.20;99.90
5061;DHT22;2549;52.128;21.068;2022-08-14T00:55:27;24.20;99.90
5061;DHT22;2549;52.128;21.068;2022-08-14T00:57:58;24.20;99.90
5061;DHT22;2549;52.128;21.068;2022-08-14T01:00:53;24.10;99.90
5061;DHT22;2549;52.128;21.068;2022-08-14T01:03:24;23.90;99.90
5061;DHT22;2549;52.128;21.068;2022-08-14T01:05:51;24.00;99.90
5061;DHT22;2549;52.128;21.068;2022-08-14T01:08:21;24.00;99.90
5061;DHT22;2549;52.128;21.068;2022-08-14T01:11:08;24.00;99.90
5061;DHT22;2549;52.128;21.068;2022-08-14T01:13:38;24.00;99.90
5061;DHT22;2549;52.128;21.068;2022-08-14T01:16:18;24.00;99.90
5061;DHT22;2549;52.128;21.068;2022-08-14T01:18:53;24.00;99.90
5061;DHT22;2549;52.128;21.068;2022-08-14T01:21:40;24.00;99.90
5061;DHT22;2549;52.128;21.068;2022-08-14T01:24:19;23.90;99.90
5061;DHT22;2549;52.128;21.068;2022-08-14T01:26:57;23.90;99.90
5061;DHT22;2549;52.128;21.068;2022-08-14T01:29:28;23.90;99.90
5061;DHT22;2549;52.128;21.068;2022-08-14T01:32:17;23.90;99.90
5061;DHT22;2549;52.128;21.068;2022-08-14T01:34:54;23.90;99.90
5061;DHT22;2549;52.128;21.068;2022-08-14T01:37:44;23.90;99.90
5061;DHT22;2549;52.128;21.068;2022-08-14T01:40:26;23.90;99.90
5061;DHT22;2549;52.128;21.068;2022-08-14T01:43:11;23.90;99.90
5061;DHT22;2549;52.128;21.068;2022-08-14T01:45:48;24.00;99.90
5061;DHT22;2549;52.128;21.068;2022-08-14T01:48:32;24.00;99.90
5061;DHT22;2549;52.128;21.068;2022-08-14T01:51:04;24.00;99.90
5061;DHT22;2549;52.128;21.068;2022-08-14T01:53:49;24.00;99.90
5061;DHT22;2549;52.128;21.068;2022-08-14T01:56:23;23.90;99.90
5061;DHT22;2549;52.128;21.068;2022-08-14T01:59:17;23.90;99.90
5061;DHT22;2549;52.128;21.068;2022-08-14T02:01:47;23.90;99.90
5061;DHT22;2549;52.128;21.068;2022-08-14T02:04:26;23.90;99.90
5061;DHT22;2549;52.128;21.068;2022-08-14T02:07:13;23.90;99.90
5061;DHT22;2549;52.128;21.068;2022-08-14T02:09:41;23.90;99.90
5061;DHT22;2549;52.128;21.068;2022-08-14T02:12:08;23.90;99.90
5061;DHT22;2549;52.128;21.068;2022-08-14T02:14:45;23.90;99.90
5061;DHT22;2549;52.128;21.068;2022-08-14T02:17:28;23.90;99.90
5061;DHT22;2549;52.128;21.068;2022-08-14T02:19:56;23.90;99.90
5061;DHT22;2549;52.128;21.068;2022-08-14T02:22:24;23.90;99.90
5061;DHT22;2549;52.128;21.068;2022-08-14T02:24:58;23.80;99.90
5061;DHT22;2549;52.128;21.068;2022-08-14T02:27:25;23.90;99.90
5061;DHT22;2549;52.128;21.068;2022-08-14T02:30:15;23.80;99.90
5061;DHT22;2549;52.128;21.068;2022-08-14T02:32:42;23.90;99.90
5061;DHT22;2549;52.128;21.068;2022-08-14T02:35:10;23.80;99.90
5061;DHT22;2549;52.128;21.068;2022-08-14T02:37:48;23.80;99.90
5061;DHT22;2549;52.128;21.068;2022-08-14T02:40:17;23.80;99.90
5061;DHT22;2549;52.128;21.068;2022-08-14T02:42:45;23.80;99.90
5061;DHT22;2549;52.128;21.068;2022-08-14T02:45:26;23.80;99.90
5061;DHT22;2549;52.128;21.068;2022-08-14T02:48:10;23.70;99.90
5061;DHT22;2549;52.128;21.068;2022-08-14T02:50:58;23.70;99.90
5061;DHT22;2549;52.128;21.068;2022-08-14T02:53:30;23.70;99.90
5061;DHT22;2549;52.128;21.068;2022-08-14T02:55:59;23.70;99.90
5061;DHT22;2549;52.128;21.068;2022-08-14T02:58:31;23.70;99.90
5061;DHT22;2549;52.128;21.068;2022-08-14T03:00:59;23.70;99.90
5061;DHT22;2549;52.128;21.068;2022-08-14T03:03:27;23.60;99.90
5061;DHT22;2549;52.128;21.068;2022-08-14T03:05:58;23.60;99.90
5061;DHT22;2549;52.128;21.068;2022-08-14T03:08:26;23.60;99.90
5061;DHT22;2549;52.128;21.068;2022-08-14T03:11:01;23.60;99.90
5061;DHT22;2549;52.128;21.068;2022-08-14T03:13:34;23.50;99.90
5061;DHT22;2549;52.128;21.068;2022-08-14T03:16:03;23.50;99.90
5061;DHT22;2549;52.128;21.068;2022-08-14T03:18:37;23.50;99.90
5061;DHT22;2549;52.128;21.068;2022-08-14T03:21:13;23.50;99.90
5061;DHT22;2549;52.128;21.068;2022-08-14T03:23:42;23.60;99.90
5061;DHT22;2549;52.128;21.068;2022-08-14T03:26:11;23.50;99.90
5061;DHT22;2549;52.128;21.068;2022-08-14T03:28:55;23.50;99.90
5061;DHT22;2549;52.128;21.068;2022-08-14T03:31:27;23.60;99.90
5061;DHT22;2549;52.128;21.068;2022-08-14T03:33:56;23.50;99.90
5061;DHT22;2549;52.128;21.068;2022-08-14T03:36:26;23.50;99.90
5061;DHT22;2549;52.128;21.068;2022-08-14T03:39:14;23.50;99.90
5061;DHT22;2549;52.128;21.068;2022-08-14T03:41:54;23.50;99.90
5061;DHT22;2549;52.128;21.068;2022-08-14T03:44:21;23.50;99.90
5061;DHT22;2549;52.128;21.068;2022-08-14T03:47:08;23.50;99.90
5061;DHT22;2549;52.128;21.068;2022-08-14T03:49:37;23.50;99.90
5061;DHT22;2549;52.128;21.068;2022-08-14T03:52:09;23.50;99.90
5061;DHT22;2549;52.128;21.068;2022-08-14T03:54:56;23.50;99.90
5061;DHT22;2549;52.128;21.068;2022-08-14T03:57:24;23.50;99.90
5061;DHT22;2549;52.128;21.068;2022-08-14T03:59:51;23.40;99.90
5061;DHT22;2549;52.128;21.068;2022-08-14T04:02:18;23.50;99.90
5061;DHT22;2549;52.128;21.068;2022-08-14T04:05:07;23.40;99.90
5061;DHT22;2549;52.128;21.068;2022-08-14T04:07:39;23.40;99.90
5061;DHT22;2549;52.128;21.068;2022-08-14T04:10:26;23.40;99.90
5061;DHT22;2549;52.128;21.068;2022-08-14T04:12:59;23.30;99.90
5061;DHT22;2549;52.128;21.068;2022-08-14T04:15:30;23.30;99.90
5061;DHT22;2549;52.128;21.068;2022-08-14T04:18:17;23.30;99.90
5061;DHT22;2549;52.128;21.068;2022-08-14T04:20:44;23.30;99.90
5061;DHT22;2549;52.128;21.068;2022-08-14T04:23:20;23.20;99.90
5061;DHT22;2549;52.128;21.068;2022-08-14T04:25:54;23.20;99.90
5061;DHT22;2549;52.128;21.068;2022-08-14T04:28:21;23.20;99.90
5061;DHT22;2549;52.128;21.068;2022-08-14T04:31:10;23.30;99.90
5061;DHT22;2549;52.128;21.068;2022-08-14T04:33:41;23.30;99.90
5061;DHT22;2549;52.128;21.068;2022-08-14T04:36:09;23.30;99.90
5061;DHT22;2549;52.128;21.068;2022-08-14T04:38:43;23.30;99.90
5061;DHT22;2549;52.128;21.068;2022-08-14T04:41:29;23.30;99.90
5061;DHT22;2549;52.128;21.068;2022-08-14T04:44:17;23.30;99.90
5061;DHT22;2549;52.128;21.068;2022-08-14T04:47:02;23.30;99.90
5061;DHT22;2549;52.128;21.068;2022-08-14T04:49:49;23.30;99.90
5061;DHT22;2549;52.128;21.068;2022-08-14T04:52:23;23.30;99.90
5061;DHT22;2549;52.128;21.068;2022-08-14T04:54:51;23.40;99.90
5061;DHT22;2549;52.128;21.068;2022-08-14T04:57:20;23.40;99.90
5061;DHT22;2549;52.128;21.068;2022-08-14T04:59:49;23.40;99.90
5061;DHT22;2549;52.128;21.068;2022-08-14T05:02:18;23.40;99.90
5061;DHT22;2549;52.128;21.068;2022-08-14T05:04:48;23.40;99.90
5061;DHT22;2549;52.128;21.068;2022-08-14T05:07:23;23.40;99.90
5061;DHT22;2549;52.128;21.068;2022-08-14T05:10:10;23.40;99.90
5061;DHT22;2549;52.128;21.068;2022-08-14T05:12:42;23.50;99.90
5061;DHT22;2549;52.128;21.068;2022-08-14T05:15:31;23.50;99.90
5061;DHT22;2549;52.128;21.068;2022-08-14T05:17:59;23.50;99.90
5061;DHT22;2549;52.128;21.068;2022-08-14T05:20:54;23.50;99.90
5061;DHT22;2549;52.128;21.068;2022-08-14T05:23:41;23.50;99.90
5061;DHT22;2549;52.128;21.068;2022-08-14T05:26:11;23.50;99.90
5061;DHT22;2549;52.128;21.068;2022-08-14T05:28:41;23.50;99.90
5061;DHT22;2549;52.128;21.068;2022-08-14T05:31:13;23.50;99.90
5061;DHT22;2549;52.128;21.068;2022-08-14T05:33:46;23.60;99.90
5061;DHT22;2549;52.128;21.068;2022-08-14T05:36:22;23.60;99.90
5061;DHT22;2549;52.128;21.068;2022-08-14T05:38:51;23.50;99.90
5061;DHT22;2549;52.128;21.068;2022-08-14T05:41:19;23.50;99.90
5061;DHT22;2549;52.128;21.068;2022-08-14T05:43:48;23.50;99.90
5061;DHT22;2549;52.128;21.068;2022-08-14T05:46:18;23.50;99.90
5061;DHT22;2549;52.128;21.068;2022-08-14T05:48:54;23.50;99.90
5061;DHT22;2549;52.128;21.068;2022-08-14T05:51:23;23.60;99.90
5061;DHT22;2549;52.128;21.068;2022-08-14T05:53:51;23.60;99.90
5061;DHT22;2549;52.128;21.068;2022-08-14T05:56:38;23.60;99.90
5061;DHT22;2549;52.128;21.068;2022-08-14T05:59:05;23.70;99.90
5061;DHT22;2549;52.128;21.068;2022-08-14T06:01:33;23.70;99.90
5061;DHT22;2549;52.128;21.068;2022-08-14T06:04:01;23.80;99.90
5061;DHT22;2549;52.128;21.068;2022-08-14T06:06:30;23.80;99.90
5061;DHT22;2549;52.128;21.068;2022-08-14T06:09:04;23.80;99.90
5061;DHT22;2549;52.128;21.068;2022-08-14T06:11:35;23.80;99.90
5061;DHT22;2549;52.128;21.068;2022-08-14T06:14:03;23.80;99.90
5061;DHT22;2549;52.128;21.068;2022-08-14T06:16:38;23.90;99.90
5061;DHT22;2549;52.128;21.068;2022-08-14T06:19:06;23.90;99.90
5061;DHT22;2549;52.128;21.068;2022-08-14T06:21:37;23.90;99.90
5061;DHT22;2549;52.128;21.068;2022-08-14T06:24:07;23.90;99.90
5061;DHT22;2549;52.128;21.068;2022-08-14T06:26:44;24.00;99.90
5061;DHT22;2549;52.128;21.068;2022-08-14T06:29:19;24.00;99.90
5061;DHT22;2549;52.128;21.068;2022-08-14T06:31:46;24.00;99.90
5061;DHT22;2549;52.128;21.068;2022-08-14T06:34:20;24.00;99.90
5061;DHT22;2549;52.128;21.068;2022-08-14T06:37:07;24.00;99.90
5061;DHT22;2549;52.128;21.068;2022-08-14T06:39:34;24.00;99.90
5061;DHT22;2549;52.128;21.068;2022-08-14T06:42:03;24.00;99.90
5061;DHT22;2549;52.128;21.068;2022-08-14T06:44:31;24.10;99.90
5061;DHT22;2549;52.128;21.068;2022-08-14T06:47:01;24.10;99.90
5061;DHT22;2549;52.128;21.068;2022-08-14T06:49:28;24.10;99.90
5061;DHT22;2549;52.128;21.068;2022-08-14T06:51:56;24.20;99.90
5061;DHT22;2549;52.128;21.068;2022-08-14T06:54:23;24.30;99.90
5061;DHT22;2549;52.128;21.068;2022-08-14T06:56:57;24.30;99.90
5061;DHT22;2549;52.128;21.068;2022-08-14T06:59:24;24.40;99.90
5061;DHT22;2549;52.128;21.068;2022-08-14T07:01:52;24.40;99.90
5061;DHT22;2549;52.128;21.068;2022-08-14T07:04:43;24.40;99.90
5061;DHT22;2549;52.128;21.068;2022-08-14T07:07:39;24.40;99.90
5061;DHT22;2549;52.128;21.068;2022-08-14T07:10:08;24.40;99.90
5061;DHT22;2549;52.128;21.068;2022-08-14T07:12:43;24.40;99.90
5061;DHT22;2549;52.128;21.068;2022-08-14T07:15:28;24.40;99.90
5061;DHT22;2549;52.128;21.068;2022-08-14T07:17:54;24.50;99.90
5061;DHT22;2549;52.128;21.068;2022-08-14T07:20:22;24.60;99.90
5061;DHT22;2549;52.128;21.068;2022-08-14T07:22:57;24.60;99.90
5061;DHT22;2549;52.128;21.068;2022-08-14T07:25:37;24.60;99.90
5061;DHT22;2549;52.128;21.068;2022-08-14T07:28:19;24.70;99.90
5061;DHT22;2549;52.128;21.068;2022-08-14T07:30:47;24.80;99.90
5061;DHT22;2549;52.128;21.068;2022-08-14T07:33:18;24.80;99.90
5061;DHT22;2549;52.128;21.068;2022-08-14T07:35:51;24.90;99.90
5061;DHT22;2549;52.128;21.068;2022-08-14T07:38:25;24.90;99.90
5061;DHT22;2549;52.128;21.068;2022-08-14T07:41:04;24.90;99.90
5061;DHT22;2549;52.128;21.068;2022-08-14T07:43:43;25.00;99.90
5061;DHT22;2549;52.128;21.068;2022-08-14T07:46:21;25.00;99.90
5061;DHT22;2549;52.128;21.068;2022-08-14T07:48:56;25.00;99.90
5061;DHT22;2549;52.128;21.068;2022-08-14T07:51:23;25.10;99.90
5061;DHT22;2549;52.128;21.068;2022-08-14T07:54:00;25.10;99.90
5061;DHT22;2549;52.128;21.068;2022-08-14T07:56:29;25.10;99.90
5061;DHT22;2549;52.128;21.068;2022-08-14T07:59:14;25.10;99.90
5061;DHT22;2549;52.128;21.068;2022-08-14T08:01:45;25.10;99.90
5061;DHT22;2549;52.128;21.068;2022-08-14T08:04:21;25.10;99.90
5061;DHT22;2549;52.128;21.068;2022-08-14T08:06:51;25.10;99.90
5061;DHT22;2549;52.128;21.068;2022-08-14T08:09:23;25.10;99.90
5061;DHT22;2549;52.128;21.068;2022-08-14T08:12:01;25.10;99.90
5061;DHT22;2549;52.128;21.068;2022-08-14T08:14:36;25.20;99.90
5061;DHT22;2549;52.128;21.068;2022-08-14T08:17:23;25.20;99.90
5061;DHT22;2549;52.128;21.068;2022-08-14T08:19:50;25.30;99.90
5061;DHT22;2549;52.128;21.068;2022-08-14T08:22:17;25.30;99.90
5061;DHT22;2549;52.128;21.068;2022-08-14T08:24:47;25.30;99.90
5061;DHT22;2549;52.128;21.068;2022-08-14T08:27:17;25.30;99.90
5061;DHT22;2549;52.128;21.068;2022-08-14T08:29:47;25.30;99.90
5061;DHT22;2549;52.128;21.068;2022-08-14T08:32:17;25.30;99.90
5061;DHT22;2549;52.128;21.068;2022-08-14T08:34:45;25.30;99.90
5061;DHT22;2549;52.128;21.068;2022-08-14T08:37:13;25.30;99.90
5061;DHT22;2549;52.128;21.068;2022-08-14T08:39:47;25.30;99.90
5061;DHT22;2549;52.128;21.068;2022-08-14T08:42:30;25.40;99.90
5061;DHT22;2549;52.128;21.068;2022-08-14T08:45:13;25.40;99.90
5061;DHT22;2549;52.128;21.068;2022-08-14T08:47:42;25.40;99.90
5061;DHT22;2549;52.128;21.068;2022-08-14T08:50:18;25.40;99.90
5061;DHT22;2549;52.128;21.068;2022-08-14T08:53:01;25.40;99.90
5061;DHT22;2549;52.128;21.068;2022-08-14T08:55:35;25.40;99.90
5061;DHT22;2549;52.128;21.068;2022-08-14T08:58:07;25.50;99.90
5061;DHT22;2549;52.128;21.068;2022-08-14T09:00:46;25.50;99.90
5061;DHT22;2549;52.128;21.068;2022-08-14T09:03:17;25.50;99.90
5061;DHT22;2549;52.128;21.068;2022-08-14T09:08:27;25.50;99.90
5061;DHT22;2549;52.128;21.068;2022-08-14T09:11:01;25.60;99.90
5061;DHT22;2549;52.128;21.068;2022-08-14T09:13:48;25.60;99.90
5061;DHT22;2549;52.128;21.068;2022-08-14T09:16:22;25.70;99.90
5061;DHT22;2549;52.128;21.068;2022-08-14T09:18:50;25.70;99.90
5061;DHT22;2549;52.128;21.068;2022-08-14T09:21:20;25.60;99.90
5061;DHT22;2549;52.128;21.068;2022-08-14T09:23:52;25.70;99.90
5061;DHT22;2549;52.128;21.068;2022-08-14T09:26:42;25.70;99.90
5061;DHT22;2549;52.128;21.068;2022-08-14T09:29:15;25.80;99.90
5061;DHT22;2549;52.128;21.068;2022-08-14T09:31:44;25.80;99.90
5061;DHT22;2549;52.128;21.068;2022-08-14T09:37:52;25.80;99.90
5061;DHT22;2549;52.128;21.068;2022-08-14T09:45:53;25.90;99.90
5061;DHT22;2549;52.128;21.068;2022-08-14T09:48:28;25.90;99.90
5061;DHT22;2549;52.128;21.068;2022-08-14T09:50:58;26.00;99.90
5061;DHT22;2549;52.128;21.068;2022-08-14T09:53:41;26.00;99.90
5061;DHT22;2549;52.128;21.068;2022-08-14T09:56:30;26.10;99.90
5061;DHT22;2549;52.128;21.068;2022-08-14T09:59:11;26.10;99.90
5061;DHT22;2549;52.128;21.068;2022-08-14T10:01:43;26.20;99.90
5061;DHT22;2549;52.128;21.068;2022-08-14T10:04:24;26.20;99.90
5061;DHT22;2549;52.128;21.068;2022-08-14T10:07:05;26.30;99.90
5061;DHT22;2549;52.128;21.068;2022-08-14T10:09:45;26.30;99.90
5061;DHT22;2549;52.128;21.068;2022-08-14T10:12:45;26.30;99.90
5061;DHT22;2549;52.128;21.068;2022-08-14T10:15:20;26.30;99.90
5061;DHT22;2549;52.128;21.068;2022-08-14T10:17:50;26.30;99.90
5061;DHT22;2549;52.128;21.068;2022-08-14T10:20:36;26.30;99.90
5061;DHT22;2549;52.128;21.068;2022-08-14T10:23:14;26.20;99.90
5061;DHT22;2549;52.128;21.068;2022-08-14T10:25:46;26.20;99.90
5061;DHT22;2549;52.128;21.068;2022-08-14T10:28:19;26.20;99.90
5061;DHT22;2549;52.128;21.068;2022-08-14T10:31:26;26.20;99.90
5061;DHT22;2549;52.128;21.068;2022-08-14T10:34:17;26.20;99.90
5061;DHT22;2549;52.128;21.068;2022-08-14T10:36:45;26.30;99.90
5061;DHT22;2549;52.128;21.068;2022-08-14T10:39:27;26.20;99.90
5061;DHT22;2549;52.128;21.068;2022-08-14T10:42:04;26.30;99.90
5061;DHT22;2549;52.128;21.068;2022-08-14T10:44:44;26.20;99.90
5061;DHT22;2549;52.128;21.068;2022-08-14T10:47:18;26.20;99.90
5061;DHT22;2549;52.128;21.068;2022-08-14T10:50:06;26.20;99.90
5061;DHT22;2549;52.128;21.068;2022-08-14T10:52:37;26.20;99.90
5061;DHT22;2549;52.128;21.068;2022-08-14T10:55:12;26.30;99.90
5061;DHT22;2549;52.128;21.068;2022-08-14T10:57:53;26.40;99.90
5061;DHT22;2549;52.128;21.068;2022-08-14T11:00:24;26.40;99.90
5061;DHT22;2549;52.128;21.068;2022-08-14T11:03:07;26.50;99.90
5061;DHT22;2549;52.128;21.068;2022-08-14T11:05:57;26.60;99.90
5061;DHT22;2549;52.128;21.068;2022-08-14T11:08:31;26.60;99.90
5061;DHT22;2549;52.128;21.068;2022-08-14T11:11:01;26.70;99.90
5061;DHT22;2549;52.128;21.068;2022-08-14T11:13:30;26.70;99.90
5061;DHT22;2549;52.128;21.068;2022-08-14T11:15:59;26.80;99.90
5061;DHT22;2549;52.128;21.068;2022-08-14T11:18:28;26.80;99.90
5061;DHT22;2549;52.128;21.068;2022-08-14T11:21:06;26.80;99.90
5061;DHT22;2549;52.128;21.068;2022-08-14T11:23:38;26.80;99.90
5061;DHT22;2549;52.128;21.068;2022-08-14T11:26:10;26.70;99.90
5061;DHT22;2549;52.128;21.068;2022-08-14T11:28:40;26.70;99.90
5061;DHT22;2549;52.128;21.068;2022-08-14T11:31:19;26.70;99.90
5061;DHT22;2549;52.128;21.068;2022-08-14T11:33:52;26.60;99.90
5061;DHT22;2549;52.128;21.068;2022-08-14T11:36:22;26.60;99.90
5061;DHT22;2549;52.128;21.068;2022-08-14T11:39:18;26.70;99.90
5061;DHT22;2549;52.128;21.068;2022-08-14T11:42:03;26.70;99.90
5061;DHT22;2549;52.128;21.068;2022-08-14T11:44:52;26.80;99.90
5061;DHT22;2549;52.128;21.068;2022-08-14T11:47:25;26.80;99.90
5061;DHT22;2549;52.128;21.068;2022-08-14T11:50:11;26.80;99.90
5061;DHT22;2549;52.128;21.068;2022-08-14T11:52:38;26.80;99.90
5061;DHT22;2549;52.128;21.068;2022-08-14T11:55:11;26.90;99.90
5061;DHT22;2549;52.128;21.068;2022-08-14T11:57:41;26.90;99.90
5061;DHT22;2549;52.128;21.068;2022-08-14T12:00:25;27.00;99.90
5061;DHT22;2549;52.128;21.068;2022-08-14T12:02:59;27.10;99.90
5061;DHT22;2549;52.128;21.068;2022-08-14T12:05:34;27.00;99.90
5061;DHT22;2549;52.128;21.068;2022-08-14T12:08:02;27.10;99.90
5061;DHT22;2549;52.128;21.068;2022-08-14T12:10:41;27.10;99.90
5061;DHT22;2549;52.128;21.068;2022-08-14T12:15:37;27.20;99.90
5061;DHT22;2549;52.128;21.068;2022-08-14T12:18:11;27.20;99.90
5061;DHT22;2549;52.128;21.068;2022-08-14T12:20:45;27.20;99.90
5061;DHT22;2549;52.128;21.068;2022-08-14T12:23:22;27.20;99.90
5061;DHT22;2549;52.128;21.068;2022-08-14T12:26:02;27.20;99.90
5061;DHT22;2549;52.128;21.068;2022-08-14T12:28:50;27.20;99.90
5061;DHT22;2549;52.128;21.068;2022-08-14T12:31:26;27.10;99.90
5061;DHT22;2549;52.128;21.068;2022-08-14T12:34:07;27.10;99.90
5061;DHT22;2549;52.128;21.068;2022-08-14T12:36:36;27.10;99.90
5061;DHT22;2549;52.128;21.068;2022-08-14T12:39:38;27.10;99.90
5061;DHT22;2549;52.128;21.068;2022-08-14T12:42:06;27.10;99.90
5061;DHT22;2549;52.128;21.068;2022-08-14T12:44:35;27.10;99.90
5061;DHT22;2549;52.128;21.068;2022-08-14T12:47:13;27.00;99.90
5061;DHT22;2549;52.128;21.068;2022-08-14T12:49:50;27.00;99.90
5061;DHT22;2549;52.128;21.068;2022-08-14T12:52:32;27.00;99.90
5061;DHT22;2549;52.128;21.068;2022-08-14T12:55:19;27.00;99.90
5061;DHT22;2549;52.128;21.068;2022-08-14T12:57:47;27.00;99.90
5061;DHT22;2549;52.128;21.068;2022-08-14T13:00:23;27.00;99.90
5061;DHT22;2549;52.128;21.068;2022-08-14T13:02:53;27.00;99.90
5061;DHT22;2549;52.128;21.068;2022-08-14T13:05:27;27.10;99.90
5061;DHT22;2549;52.128;21.068;2022-08-14T13:08:02;27.10;99.90
5061;DHT22;2549;52.128;21.068;2022-08-14T13:10:31;27.10;99.90
5061;DHT22;2549;52.128;21.068;2022-08-14T13:13:19;27.20;99.90
5061;DHT22;2549;52.128;21.068;2022-08-14T13:15:47;27.20;99.90
5061;DHT22;2549;52.128;21.068;2022-08-14T13:18:24;27.20;99.90
5061;DHT22;2549;52.128;21.068;2022-08-14T13:20:55;27.30;99.90
5061;DHT22;2549;52.128;21.068;2022-08-14T13:23:32;27.30;99.90
5061;DHT22;2549;52.128;21.068;2022-08-14T13:26:02;27.40;99.90
5061;DHT22;2549;52.128;21.068;2022-08-14T13:28:30;27.40;99.90
5061;DHT22;2549;52.128;21.068;2022-08-14T13:31:08;27.40;99.90
5061;DHT22;2549;52.128;21.068;2022-08-14T13:33:38;27.40;99.90
5061;DHT22;2549;52.128;21.068;2022-08-14T13:36:08;27.40;99.90
5061;DHT22;2549;52.128;21.068;2022-08-14T13:38:36;27.40;99.90
5061;DHT22;2549;52.128;21.068;2022-08-14T13:41:04;27.40;99.90
5061;DHT22;2549;52.128;21.068;2022-08-14T13:43:32;27.50;99.90
5061;DHT22;2549;52.128;21.068;2022-08-14T13:46:15;27.50;99.90
5061;DHT22;2549;52.128;21.068;2022-08-14T13:48:43;27.50;99.90
5061;DHT22;2549;52.128;21.068;2022-08-14T13:51:10;27.60;99.90
5061;DHT22;2549;52.128;21.068;2022-08-14T13:53:44;27.70;99.90
5061;DHT22;2549;52.128;21.068;2022-08-14T13:56:37;27.70;99.90
5061;DHT22;2549;52.128;21.068;2022-08-14T13:59:06;27.70;99.90
5061;DHT22;2549;52.128;21.068;2022-08-14T14:01:34;27.70;99.90
5061;DHT22;2549;52.128;21.068;2022-08-14T14:04:13;27.70;99.90
5061;DHT22;2549;52.128;21.068;2022-08-14T14:06:48;27.80;99.90
5061;DHT22;2549;52.128;21.068;2022-08-14T14:09:26;27.90;99.90
5061;DHT22;2549;52.128;21.068;2022-08-14T14:12:10;27.90;99.90
5061;DHT22;2549;52.128;21.068;2022-08-14T14:14:59;27.80;99.90
5061;DHT22;2549;52.128;21.068;2022-08-14T14:17:31;27.90;99.90
5061;DHT22;2549;52.128;21.068;2022-08-14T14:19:59;27.90;99.90
5061;DHT22;2549;52.128;21.068;2022-08-14T14:22:30;28.00;99.90
5061;DHT22;2549;52.128;21.068;2022-08-14T14:25:18;28.00;99.90
5061;DHT22;2549;52.128;21.068;2022-08-14T14:27:48;28.10;99.90
5061;DHT22;2549;52.128;21.068;2022-08-14T14:30:19;28.10;99.90
5061;DHT22;2549;52.128;21.068;2022-08-14T14:33:11;28.10;99.90
5061;DHT22;2549;52.128;21.068;2022-08-14T14:35:59;28.10;99.90
5061;DHT22;2549;52.128;21.068;2022-08-14T14:38:32;28.10;99.90
5061;DHT22;2549;52.128;21.068;2022-08-14T14:41:00;28.00;99.90
5061;DHT22;2549;52.128;21.068;2022-08-14T14:43:32;28.00;99.90
5061;DHT22;2549;52.128;21.068;2022-08-14T14:46:04;28.00;99.90
5061;DHT22;2549;52.128;21.068;2022-08-14T14:48:38;28.00;99.90
5061;DHT22;2549;52.128;21.068;2022-08-14T14:51:19;28.00;99.90
5061;DHT22;2549;52.128;21.068;2022-08-14T14:53:48;28.00;99.90
5061;DHT22;2549;52.128;21.068;2022-08-14T14:56:15;28.00;99.90
5061;DHT22;2549;52.128;21.068;2022-08-14T14:59:02;27.90;99.90
5061;DHT22;2549;52.128;21.068;2022-08-14T15:01:34;27.90;99.90
5061;DHT22;2549;52.128;21.068;2022-08-14T15:04:02;27.90;99.90
5061;DHT22;2549;52.128;21.068;2022-08-14T15:06:34;27.90;99.90
5061;DHT22;2549;52.128;21.068;2022-08-14T15:09:01;27.90;99.90
5061;DHT22;2549;52.128;21.068;2022-08-14T15:11:30;27.90;99.90
5061;DHT22;2549;52.128;21.068;2022-08-14T15:13:58;27.90;99.90
5061;DHT22;2549;52.128;21.068;2022-08-14T15:16:27;27.90;99.90
5061;DHT22;2549;52.128;21.068;2022-08-14T15:18:54;27.90;99.90
5061;DHT22;2549;52.128;21.068;2022-08-14T15:21:21;27.90;99.90
5061;DHT22;2549;52.128;21.068;2022-08-14T15:23:48;27.90;99.90
5061;DHT22;2549;52.128;21.068;2022-08-14T15:26:17;27.90;99.90
5061;DHT22;2549;52.128;21.068;2022-08-14T15:29:02;27.90;99.90
5061;DHT22;2549;52.128;21.068;2022-08-14T15:31:33;27.90;99.90
5061;DHT22;2549;52.128;21.068;2022-08-14T15:34:03;27.90;99.90
5061;DHT22;2549;52.128;21.068;2022-08-14T15:37:01;27.90;99.90
5061;DHT22;2549;52.128;21.068;2022-08-14T15:39:29;27.80;99.90
5061;DHT22;2549;52.128;21.068;2022-08-14T15:42:04;27.80;99.90
5061;DHT22;2549;52.128;21.068;2022-08-14T15:44:41;27.80;99.90
5061;DHT22;2549;52.128;21.068;2022-08-14T15:47:23;27.80;99.90
5061;DHT22;2549;52.128;21.068;2022-08-14T15:49:59;27.80;99.90
5061;DHT22;2549;52.128;21.068;2022-08-14T15:52:29;27.80;99.90
5061;DHT22;2549;52.128;21.068;2022-08-14T15:55:10;27.80;99.90
5061;DHT22;2549;52.128;21.068;2022-08-14T15:57:44;27.80;99.90
5061;DHT22;2549;52.128;21.068;2022-08-14T16:00:29;27.80;99.90
5061;DHT22;2549;52.128;21.068;2022-08-14T16:03:15;27.80;99.90
5061;DHT22;2549;52.128;21.068;2022-08-14T16:05:59;27.80;99.90
5061;DHT22;2549;52.128;21.068;2022-08-14T16:08:26;27.80;99.90
5061;DHT22;2549;52.128;21.068;2022-08-14T16:11:03;27.80;99.90
5061;DHT22;2549;52.128;21.068;2022-08-14T16:13:33;27.80;99.90
5061;DHT22;2549;52.128;21.068;2022-08-14T16:19:08;27.80;99.90
5061;DHT22;2549;52.128;21.068;2022-08-14T16:21:40;27.80;99.90
5061;DHT22;2549;52.128;21.068;2022-08-14T16:24:29;27.80;99.90
5061;DHT22;2549;52.128;21.068;2022-08-14T16:26:59;27.80;99.90
5061;DHT22;2549;52.128;21.068;2022-08-14T16:29:29;27.80;99.90
5061;DHT22;2549;52.128;21.068;2022-08-14T16:31:58;27.80;99.90
5061;DHT22;2549;52.128;21.068;2022-08-14T16:34:27;27.80;99.90
5061;DHT22;2549;52.128;21.068;2022-08-14T16:37:13;27.80;99.90
5061;DHT22;2549;52.128;21.068;2022-08-14T16:39:43;27.80;99.90
5061;DHT22;2549;52.128;21.068;2022-08-14T16:42:11;27.80;99.90
5061;DHT22;2549;52.128;21.068;2022-08-14T16:44:59;27.80;99.90
5061;DHT22;2549;52.128;21.068;2022-08-14T16:47:26;27.80;99.90
5061;DHT22;2549;52.128;21.068;2022-08-14T16:50:01;27.80;99.90
5061;DHT22;2549;52.128;21.068;2022-08-14T16:52:35;27.80;99.90